Time;durP1;ratioP1;P1;durP2;ratioP2;P2;SDS_P1;SDS_P2;PMS_P1;PMS_P2;Temp;Humidity;BMP_temperature;BMP_pressure;BME280_temperature;BME280_humidity;BME280_pressure;Samples;Min_cycle;Max_cycle;Signal;HPM_P1;HPM_P2
2023/07/02 00:02:23;;;;;;;4.85;3.00;;;;;;;16.00;78.54;100458.75;4988767;28;20042;-86
2023/07/02 00:04:48;;;;;;;5.50;3.40;;;;;;;15.95;78.99;100445.06;4984232;28;20030;-86
2023/07/02 00:07:14;;;;;;;3.33;3.03;;;;;;;15.91;79.02;100434.69;4987850;28;20034;-86
2023/07/02 00:09:40;;;;;;;4.32;3.30;;;;;;;16.02;79.19;100424.03;4989442;28;20026;-86
2023/07/02 00:12:06;;;;;;;4.90;3.40;;;;;;;15.96;79.41;100439.41;4989512;28;20035;-86
2023/07/02 00:14:31;;;;;;;4.25;3.60;;;;;;;15.96;80.04;100434.00;4989139;28;20056;-86
2023/07/02 00:16:56;;;;;;;4.00;3.50;;;;;;;15.93;80.27;100441.78;4988884;28;20030;-86
2023/07/02 00:19:22;;;;;;;4.18;3.33;;;;;;;15.90;80.72;100435.75;4988547;28;20038;-86
2023/07/02 00:21:50;;;;;;;3.97;3.50;;;;;;;15.94;80.70;100433.41;4989001;28;20037;-86
2023/07/02 00:24:16;;;;;;;6.75;3.97;;;;;;;15.95;81.14;100428.78;4985877;28;20034;-86
2023/07/02 00:26:41;;;;;;;6.78;4.35;;;;;;;15.93;81.38;100414.63;4988668;28;20068;-85
2023/07/02 00:29:08;;;;;;;7.93;4.07;;;;;;;15.97;81.41;100416.63;4987124;28;20117;-86
2023/07/02 00:31:34;;;;;;;6.25;3.97;;;;;;;15.97;81.50;100421.22;4986558;28;20050;-86
2023/07/02 00:34:00;;;;;;;6.28;4.47;;;;;;;15.91;81.58;100423.03;4988322;28;20030;-85
2023/07/02 00:36:26;;;;;;;7.07;4.68;;;;;;;15.88;82.10;100418.09;4986162;28;20121;-86
2023/07/02 00:38:52;;;;;;;8.73;4.30;;;;;;;15.76;82.57;100415.38;4987822;28;20027;-86
2023/07/02 00:41:17;;;;;;;7.30;4.35;;;;;;;15.76;83.01;100423.53;4989788;28;20457;-87
2023/07/02 00:43:43;;;;;;;9.00;4.65;;;;;;;15.85;82.45;100430.25;4986982;28;20038;-86
2023/07/02 00:46:17;;;;;;;6.68;4.43;;;;;;;15.90;82.21;100424.09;4987462;28;20071;-86
2023/07/02 00:48:43;;;;;;;6.57;4.50;;;;;;;15.93;82.29;100422.78;4988055;28;20050;-86
2023/07/02 00:51:09;;;;;;;6.95;4.93;;;;;;;15.93;82.32;100415.47;4985569;28;20034;-86
2023/07/02 00:53:34;;;;;;;7.22;4.65;;;;;;;15.88;82.55;100412.66;4972248;28;20088;-86
2023/07/02 00:56:00;;;;;;;8.07;5.32;;;;;;;15.97;82.12;100413.09;4971043;28;20077;-85
2023/07/02 00:58:26;;;;;;;8.73;4.90;;;;;;;16.03;81.83;100421.06;4989222;28;20022;-85
2023/07/02 01:00:52;;;;;;;11.38;5.05;;;;;;;16.00;82.02;100415.31;5037382;28;20034;-85
2023/07/02 01:03:18;;;;;;;9.90;5.68;;;;;;;15.93;82.12;100417.34;5055449;28;20027;-85
2023/07/02 01:05:43;;;;;;;9.77;5.50;;;;;;;15.97;81.91;100422.06;4988176;28;20390;-85
2023/07/02 01:08:11;;;;;;;10.50;6.15;;;;;;;15.95;81.70;100423.34;4987421;28;20037;-85
2023/07/02 01:10:37;;;;;;;7.90;5.47;;;;;;;15.89;81.95;100422.44;4986669;28;20088;-84
2023/07/02 01:13:15;;;;;;;9.43;5.63;;;;;;;15.86;82.41;100425.63;4986832;28;20034;-82
2023/07/02 01:15:40;;;;;;;10.02;6.07;;;;;;;15.89;81.85;100434.13;4968610;28;20145;-81
2023/07/02 01:18:05;;;;;;;11.57;6.15;;;;;;;15.85;81.54;100442.97;4970615;28;20531;-81
2023/07/02 01:20:31;;;;;;;11.65;6.30;;;;;;;15.86;81.66;100440.06;4988011;28;20034;-81
2023/07/02 01:22:57;;;;;;;13.10;6.32;;;;;;;15.82;81.48;100440.72;5036098;28;20390;-81
2023/07/02 01:25:24;;;;;;;12.77;6.00;;;;;;;15.80;81.20;100440.97;4967237;28;20027;-81
2023/07/02 01:27:50;;;;;;;10.98;5.63;;;;;;;15.93;80.72;100436.34;4954298;28;20115;-81
2023/07/02 01:30:15;;;;;;;13.00;6.72;;;;;;;15.90;80.53;100443.09;4986097;28;20038;-80
2023/07/02 01:32:41;;;;;;;11.35;6.28;;;;;;;15.86;80.62;100436.50;4981223;28;20478;-80
2023/07/02 01:35:07;;;;;;;9.23;6.07;;;;;;;15.77;81.12;100445.00;4986171;28;20031;-83
2023/07/02 01:37:37;;;;;;;13.40;6.45;;;;;;;15.84;81.27;100455.72;4988050;28;20030;-80
2023/07/02 01:40:06;;;;;;;10.98;6.70;;;;;;;15.75;81.38;100452.56;4988476;28;20033;-81
2023/07/02 01:42:32;;;;;;;12.07;6.55;;;;;;;15.72;82.23;100447.63;4988395;28;20026;-82
2023/07/02 01:44:57;;;;;;;12.88;7.20;;;;;;;15.72;82.22;100463.06;4986561;28;20118;-82
2023/07/02 01:47:22;;;;;;;13.75;7.15;;;;;;;15.59;83.36;100466.91;4988693;28;20570;-82
2023/07/02 01:49:48;;;;;;;10.05;6.70;;;;;;;15.57;84.06;100456.25;4985190;28;20026;-82
2023/07/02 01:52:13;;;;;;;12.20;7.05;;;;;;;15.46;83.90;100465.28;4988348;28;20030;-82
2023/07/02 01:54:39;;;;;;;9.23;6.22;;;;;;;15.42;84.90;100469.50;4982248;28;20027;-82
2023/07/02 01:57:04;;;;;;;13.60;6.68;;;;;;;15.39;84.75;100467.28;4987595;28;20045;-82
2023/07/02 01:59:30;;;;;;;13.18;7.03;;;;;;;15.30;85.20;100466.81;4985727;28;20113;-82
2023/07/02 02:01:55;;;;;;;10.75;6.18;;;;;;;15.25;84.18;100475.66;4990050;28;20406;-82
2023/07/02 02:04:22;;;;;;;13.30;6.25;;;;;;;15.22;82.46;100483.47;4989970;28;20050;-82
2023/07/02 02:06:47;;;;;;;13.32;6.63;;;;;;;15.20;82.78;100480.97;4991052;28;20039;-82
2023/07/02 02:09:13;;;;;;;11.25;6.20;;;;;;;15.16;82.16;100480.63;4988584;28;20035;-81
2023/07/02 02:11:40;;;;;;;15.15;6.10;;;;;;;15.12;82.19;100482.16;4991874;28;20376;-81
2023/07/02 02:14:05;;;;;;;12.43;5.68;;;;;;;15.13;82.42;100481.09;4986894;28;20549;-81
2023/07/02 02:16:30;;;;;;;11.57;5.65;;;;;;;15.13;81.53;100483.00;4988068;28;20023;-81
2023/07/02 02:18:56;;;;;;;12.90;5.78;;;;;;;15.13;80.70;100481.09;4988540;28;20034;-81
2023/07/02 02:21:22;;;;;;;12.55;5.43;;;;;;;15.11;80.10;100483.22;4988832;28;20038;-81
2023/07/02 02:23:47;;;;;;;12.38;5.55;;;;;;;15.02;79.87;100487.34;4988894;28;20107;-81
2023/07/02 02:26:13;;;;;;;11.35;5.63;;;;;;;15.00;79.60;100489.47;4990404;28;20034;-82
2023/07/02 02:28:39;;;;;;;12.50;5.78;;;;;;;14.95;79.27;100487.47;4998189;28;20030;-81
2023/07/02 02:31:04;;;;;;;11.80;6.00;;;;;;;15.00;78.56;100484.88;4983236;28;20034;-81
2023/07/02 02:33:30;;;;;;;13.85;4.95;;;;;;;14.91;77.60;100488.19;4989957;28;20019;-81
2023/07/02 02:35:55;;;;;;;11.30;5.40;;;;;;;14.76;78.53;100496.75;4990432;28;20039;-81
2023/07/02 02:38:21;;;;;;;10.90;5.35;;;;;;;14.73;79.18;100491.81;4990138;28;20038;-84
2023/07/02 02:40:46;;;;;;;11.20;5.43;;;;;;;14.74;78.88;100498.88;4990278;28;20034;-81
2023/07/02 02:43:11;;;;;;;13.48;5.70;;;;;;;14.67;78.72;100499.78;4989118;28;20172;-82
2023/07/02 02:45:38;;;;;;;10.55;5.80;;;;;;;14.75;77.82;100495.13;4989978;28;20034;-82
2023/07/02 02:48:04;;;;;;;11.18;5.05;;;;;;;14.75;77.08;100497.81;4988353;28;20045;-81
2023/07/02 02:50:29;;;;;;;11.13;5.32;;;;;;;14.63;77.46;100498.63;4989999;28;20023;-82
2023/07/02 02:52:55;;;;;;;12.23;5.57;;;;;;;14.62;77.41;100505.09;4988796;28;20031;-82
2023/07/02 02:55:26;;;;;;;8.82;4.97;;;;;;;14.55;77.57;100501.63;4992460;28;20037;-82
2023/07/02 02:57:51;;;;;;;15.93;5.45;;;;;;;14.46;77.66;100508.47;4992897;28;20042;-80
2023/07/02 03:00:17;;;;;;;18.60;6.00;;;;;;;14.32;78.04;100507.81;5000064;28;20041;-80
2023/07/02 03:02:43;;;;;;;14.77;5.78;;;;;;;14.14;78.61;100508.69;4994506;28;20073;-82
2023/07/02 03:05:08;;;;;;;13.90;5.30;;;;;;;14.03;79.53;100503.00;4992377;28;20027;-82
2023/07/02 03:07:35;;;;;;;11.60;5.30;;;;;;;13.98;79.57;100510.16;5021405;28;20409;-82
2023/07/02 03:10:00;;;;;;;9.77;4.97;;;;;;;13.87;79.15;100511.75;4990905;28;20061;-82
2023/07/02 03:12:26;;;;;;;12.50;5.60;;;;;;;13.75;79.89;100517.94;4986269;28;20064;-81
2023/07/02 03:14:54;;;;;;;11.20;5.38;;;;;;;13.67;80.13;100520.94;4987573;28;20505;-81
2023/07/02 03:17:22;;;;;;;8.93;4.88;;;;;;;13.66;80.18;100530.09;4987599;28;20058;-81
2023/07/02 03:19:48;;;;;;;11.68;5.57;;;;;;;13.58;80.39;100533.13;4990594;28;20038;-81
2023/07/02 03:22:13;;;;;;;13.07;5.50;;;;;;;13.47;80.59;100527.38;4991290;28;20029;-81
2023/07/02 03:24:39;;;;;;;12.75;5.68;;;;;;;13.38;80.76;100530.56;4990474;28;20033;-81
2023/07/02 03:27:05;;;;;;;15.45;5.90;;;;;;;13.37;80.91;100537.88;4988087;28;20468;-81
2023/07/02 03:29:30;;;;;;;12.98;6.07;;;;;;;13.30;80.90;100545.22;4990979;28;20054;-81
2023/07/02 03:31:55;;;;;;;11.00;5.43;;;;;;;13.32;80.64;100545.81;4987048;28;20091;-81
2023/07/02 03:34:23;;;;;;;11.68;5.57;;;;;;;13.33;80.11;100542.88;4990267;28;20470;-81
2023/07/02 03:36:49;;;;;;;16.10;5.85;;;;;;;13.34;80.10;100541.00;4989975;28;20067;-81
2023/07/02 03:39:14;;;;;;;9.68;5.18;;;;;;;13.36;80.20;100541.63;4981530;28;20018;-81
2023/07/02 03:41:39;;;;;;;12.18;5.22;;;;;;;13.49;79.82;100538.81;4990400;28;20022;-81
2023/07/02 03:44:07;;;;;;;11.32;5.13;;;;;;;13.43;79.98;100544.28;4991972;28;20033;-81
2023/07/02 03:46:33;;;;;;;12.07;5.78;;;;;;;13.44;79.98;100546.75;4989682;28;20122;-82
2023/07/02 03:48:58;;;;;;;10.98;5.70;;;;;;;13.46;79.71;100547.34;4989760;28;20022;-82
2023/07/02 03:51:24;;;;;;;12.75;5.53;;;;;;;13.45;79.89;100556.53;4989272;28;20117;-82
2023/07/02 03:53:49;;;;;;;11.05;5.22;;;;;;;13.38;80.36;100539.53;4986129;28;20030;-82
2023/07/02 03:56:15;;;;;;;12.55;5.30;;;;;;;13.52;80.09;100558.34;4989727;28;20041;-82
2023/07/02 03:58:43;;;;;;;12.40;5.50;;;;;;;13.44;80.59;100549.47;4990388;28;20025;-82
2023/07/02 04:01:08;;;;;;;11.52;5.80;;;;;;;13.42;80.64;100556.97;4987442;28;20718;-81
2023/07/02 04:03:34;;;;;;;9.77;5.53;;;;;;;13.44;80.32;100560.28;4987306;28;20029;-82
2023/07/02 04:06:06;;;;;;;11.85;5.53;;;;;;;13.36;81.25;100565.94;4990202;28;20381;-82
2023/07/02 04:08:31;;;;;;;12.52;5.72;;;;;;;13.33;81.21;100574.50;4990161;28;20030;-82
2023/07/02 04:10:57;;;;;;;12.52;5.82;;;;;;;13.30;81.05;100569.53;4988696;28;20100;-82
2023/07/02 04:13:22;;;;;;;13.98;5.88;;;;;;;13.37;81.16;100569.47;4988809;28;20355;-82
2023/07/02 04:15:48;;;;;;;13.85;5.97;;;;;;;13.45;80.58;100571.94;4985978;28;20042;-81
2023/07/02 04:18:13;;;;;;;12.45;6.13;;;;;;;13.46;80.80;100574.41;4987935;28;20509;-81
2023/07/02 04:20:38;;;;;;;12.75;5.80;;;;;;;13.56;80.39;100570.38;4989089;28;20109;-81
2023/07/02 04:23:07;;;;;;;13.60;5.90;;;;;;;13.59;79.88;100573.44;4987547;28;20019;-82
2023/07/02 04:25:33;;;;;;;13.90;5.72;;;;;;;13.65;79.65;100577.13;4988079;28;20481;-81
2023/07/02 04:27:58;;;;;;;13.52;5.78;;;;;;;13.60;79.75;100576.97;4988358;28;20168;-81
2023/07/02 04:30:24;;;;;;;13.10;6.00;;;;;;;13.70;79.39;100580.00;4987804;28;20030;-81
2023/07/02 04:32:50;;;;;;;13.02;5.43;;;;;;;13.77;78.98;100575.31;4986216;28;20086;-81
2023/07/02 04:35:16;;;;;;;13.88;5.80;;;;;;;13.88;78.34;100583.75;4985695;28;20105;-81
2023/07/02 04:37:41;;;;;;;13.23;6.20;;;;;;;13.98;77.66;100581.34;4987527;28;20034;-81
2023/07/02 04:40:10;;;;;;;14.73;6.05;;;;;;;14.39;76.14;100593.31;4979077;28;20543;-81
2023/07/02 04:42:39;;;;;;;13.77;6.55;;;;;;;14.41;76.11;100584.97;4984679;28;20035;-81
2023/07/02 04:45:05;;;;;;;13.57;6.00;;;;;;;14.64;75.21;100586.97;4977245;28;20375;-82
2023/07/02 04:47:30;;;;;;;14.77;5.47;;;;;;;14.46;75.35;100592.41;4987048;28;20542;-81
2023/07/02 04:49:56;;;;;;;12.48;6.03;;;;;;;14.77;74.63;100599.50;4986426;28;20034;-81
2023/07/02 04:52:21;;;;;;;12.10;5.47;;;;;;;14.95;73.38;100601.31;4987130;28;20151;-82
2023/07/02 04:54:47;;;;;;;9.82;5.40;;;;;;;15.62;71.72;100610.19;4986730;28;20087;-81
2023/07/02 04:57:14;;;;;;;13.18;6.05;;;;;;;16.54;67.71;100598.81;4987578;28;20057;-82
2023/07/02 04:59:40;;;;;;;16.48;6.32;;;;;;;16.90;66.89;100604.91;4975338;28;20033;-82
2023/07/02 05:02:06;;;;;;;14.60;6.07;;;;;;;16.67;66.55;100598.50;4985141;28;20515;-83
2023/07/02 05:04:32;;;;;;;15.73;6.47;;;;;;;16.69;66.67;100596.38;4976879;28;20030;-86
2023/07/02 05:06:57;;;;;;;13.80;6.10;;;;;;;16.50;66.99;100603.91;4987382;28;20043;-86
2023/07/02 05:09:23;;;;;;;13.48;6.75;;;;;;;15.95;69.26;100602.53;4989305;28;20466;-83
2023/07/02 05:11:48;;;;;;;14.55;6.40;;;;;;;16.03;69.39;100610.31;4986398;28;20389;-83
2023/07/02 05:14:13;;;;;;;17.63;6.55;;;;;;;15.52;70.77;100609.97;4981297;28;20084;-82
2023/07/02 05:16:39;;;;;;;13.93;6.32;;;;;;;15.67;70.86;100620.38;4983678;28;20370;-82
2023/07/02 05:19:04;;;;;;;14.07;6.38;;;;;;;16.17;69.19;100608.97;4988937;28;20030;-85
2023/07/02 05:21:29;;;;;;;11.27;6.20;;;;;;;16.27;68.92;100613.78;4985839;28;20038;-82
2023/07/02 05:23:55;;;;;;;12.52;6.68;;;;;;;17.10;66.10;100613.44;4987842;28;21901;-86
2023/07/02 05:26:20;;;;;;;14.35;6.38;;;;;;;17.27;64.66;100612.63;4978653;28;20335;-83
2023/07/02 05:28:48;;;;;;;13.95;6.15;;;;;;;17.77;63.88;100615.50;4979037;28;20421;-83
2023/07/02 05:31:14;;;;;;;13.68;6.72;;;;;;;18.26;61.71;100623.81;4981605;28;20045;-86
2023/07/02 05:33:39;;;;;;;13.93;6.55;;;;;;;18.49;61.13;100627.34;4984659;28;20023;-81
2023/07/02 05:36:06;;;;;;;12.98;6.95;;;;;;;18.77;60.44;100629.00;4988940;28;20072;-87
2023/07/02 05:38:32;;;;;;;15.57;7.10;;;;;;;19.59;57.80;100629.97;4992440;28;20054;-81
2023/07/02 05:40:58;;;;;;;15.27;6.72;;;;;;;19.98;54.63;100629.66;4988415;28;20046;-86
2023/07/02 05:43:23;;;;;;;14.75;6.80;;;;;;;18.90;58.63;100633.19;4989024;28;20394;-85
2023/07/02 05:46:00;;;;;;;13.68;6.72;;;;;;;18.38;59.92;100625.56;4991144;28;20087;-86
2023/07/02 05:48:26;;;;;;;14.57;7.00;;;;;;;17.80;61.18;100634.88;4980996;28;20031;-80
2023/07/02 05:50:52;;;;;;;19.45;7.32;;;;;;;17.41;64.05;100635.69;4986152;28;20037;-81
2023/07/02 05:53:17;;;;;;;12.80;6.90;;;;;;;17.82;63.59;100640.09;4988532;28;20034;-82
2023/07/02 05:55:43;;;;;;;15.75;6.50;;;;;;;17.89;61.81;100640.72;4982038;28;20462;-83
2023/07/02 05:58:08;;;;;;;18.20;7.13;;;;;;;17.83;62.61;100641.72;4985540;28;20091;-82
2023/07/02 06:00:36;;;;;;;20.83;7.10;;;;;;;17.91;61.92;100632.31;4987002;28;20379;-82
2023/07/02 06:03:02;;;;;;;16.90;6.88;;;;;;;18.03;61.71;100642.03;4987951;28;20091;-82
2023/07/02 06:05:27;;;;;;;14.40;6.88;;;;;;;17.80;61.02;100647.69;4987194;28;20030;-81
2023/07/02 06:07:53;;;;;;;17.38;6.60;;;;;;;17.94;60.92;100648.97;4990063;28;20029;-82
2023/07/02 06:10:18;;;;;;;17.23;7.38;;;;;;;18.05;61.44;100652.69;4986000;28;20133;-82
2023/07/02 06:12:44;;;;;;;18.05;6.85;;;;;;;19.52;56.60;100649.28;4985834;28;20034;-83
2023/07/02 06:15:09;;;;;;;15.75;6.93;;;;;;;19.87;54.90;100660.72;4987283;28;20034;-86
2023/07/02 06:17:35;;;;;;;15.95;6.57;;;;;;;21.20;52.72;100662.25;4982615;28;20050;-82
2023/07/02 06:20:04;;;;;;;18.65;7.57;;;;;;;20.77;51.79;100664.41;4989094;28;20018;-82
2023/07/02 06:22:30;;;;;;;15.48;7.40;;;;;;;20.23;53.26;100652.72;4990502;28;20023;-83
2023/07/02 06:24:55;;;;;;;15.98;7.25;;;;;;;20.11;52.29;100664.72;4997326;28;20049;-81
2023/07/02 06:27:20;;;;;;;19.65;7.43;;;;;;;20.39;51.13;100659.06;5001152;28;20073;-83
2023/07/02 06:29:46;;;;;;;18.92;7.00;;;;;;;19.90;53.12;100666.50;4989219;28;20027;-82
2023/07/02 06:32:11;;;;;;;16.95;7.35;;;;;;;20.59;50.44;100661.06;4971308;28;20034;-81
2023/07/02 06:34:37;;;;;;;18.38;7.35;;;;;;;21.40;48.28;100675.16;4986940;28;20046;-81
2023/07/02 06:37:02;;;;;;;16.35;7.63;;;;;;;21.24;47.84;100677.06;4984413;28;20027;-82
2023/07/02 06:39:28;;;;;;;20.23;7.32;;;;;;;21.66;47.89;100677.88;4989552;28;20034;-80
2023/07/02 06:41:53;;;;;;;18.23;7.82;;;;;;;20.94;49.39;100677.84;4980096;28;20444;-80
2023/07/02 06:44:18;;;;;;;16.10;7.32;;;;;;;21.18;47.27;100678.16;4985538;28;20030;-83
2023/07/02 06:46:46;;;;;;;15.52;6.78;;;;;;;20.90;47.48;100683.88;4986834;28;20030;-82
2023/07/02 06:49:11;;;;;;;17.50;7.38;;;;;;;21.56;46.82;100684.16;4988766;28;20033;-82
2023/07/02 06:51:36;;;;;;;16.23;6.93;;;;;;;22.42;44.83;100680.72;4986227;28;20031;-82
2023/07/02 06:54:02;;;;;;;18.27;7.60;;;;;;;22.53;43.92;100690.56;4984286;28;20466;-83
2023/07/02 06:56:27;;;;;;;21.17;7.72;;;;;;;22.18;45.84;100683.25;4987052;28;20036;-83
2023/07/02 06:58:53;;;;;;;15.95;7.20;;;;;;;22.12;45.56;100696.16;4989329;28;20027;-83
2023/07/02 07:01:19;;;;;;;14.98;6.65;;;;;;;23.04;43.27;100694.09;4990412;28;20103;-82
2023/07/02 07:03:44;;;;;;;16.23;6.95;;;;;;;22.97;43.19;100705.41;4990428;28;20038;-82
2023/07/02 07:06:11;;;;;;;15.25;6.75;;;;;;;22.77;44.13;100711.81;4988383;28;20033;-82
2023/07/02 07:08:39;;;;;;;16.75;7.13;;;;;;;22.69;42.64;100704.19;4991819;28;20045;-83
2023/07/02 07:11:05;;;;;;;16.80;7.35;;;;;;;23.70;41.94;100708.41;4991429;28;20034;-84
2023/07/02 07:13:30;;;;;;;14.73;6.80;;;;;;;23.77;40.15;100706.16;4988320;28;20031;-83
2023/07/02 07:15:55;;;;;;;17.92;6.78;;;;;;;23.72;40.94;100719.13;4991441;28;20039;-83
2023/07/02 07:18:21;;;;;;;14.18;6.78;;;;;;;23.64;39.89;100723.34;4990197;28;20022;-83
2023/07/02 07:20:47;;;;;;;14.80;6.78;;;;;;;22.64;42.08;100715.19;4987205;28;20027;-84
2023/07/02 07:23:12;;;;;;;14.30;6.63;;;;;;;22.12;44.40;100718.09;4991028;28;20367;-83
2023/07/02 07:25:37;;;;;;;12.20;6.00;;;;;;;22.49;42.18;100716.91;4985935;28;20391;-84
2023/07/02 07:28:03;;;;;;;15.02;5.80;;;;;;;22.02;42.67;100718.13;4985791;28;20430;-83
2023/07/02 07:30:28;;;;;;;16.17;6.50;;;;;;;21.88;43.94;100723.34;4990449;28;20030;-84
2023/07/02 07:32:54;;;;;;;14.02;5.97;;;;;;;22.35;42.47;100726.81;4988762;28;20114;-83
2023/07/02 07:35:22;;;;;;;15.60;6.10;;;;;;;21.67;42.92;100731.59;4989441;28;20434;-84
2023/07/02 07:37:50;;;;;;;15.50;6.50;;;;;;;21.20;45.21;100728.81;4991449;28;20637;-83
2023/07/02 07:40:15;;;;;;;13.13;5.32;;;;;;;21.23;44.03;100726.63;4987577;28;20041;-82
2023/07/02 07:42:42;;;;;;;13.77;6.50;;;;;;;21.29;45.11;100729.09;4988698;28;20030;-84
2023/07/02 07:45:11;;;;;;;11.93;6.10;;;;;;;21.65;43.41;100742.00;4990929;28;20018;-83
2023/07/02 07:47:36;;;;;;;14.35;6.07;;;;;;;22.13;42.53;100736.19;4988507;28;20086;-83
2023/07/02 07:50:02;;;;;;;14.68;6.13;;;;;;;21.99;42.46;100735.94;4989272;28;20076;-84
2023/07/02 07:52:27;;;;;;;15.52;6.18;;;;;;;21.60;42.84;100740.09;4989170;28;20038;-83
2023/07/02 07:54:53;;;;;;;15.50;6.10;;;;;;;22.40;41.05;100744.06;4987975;28;20111;-83
2023/07/02 07:57:18;;;;;;;11.63;5.68;;;;;;;23.01;39.50;100744.06;4987229;28;20041;-84
2023/07/02 07:59:43;;;;;;;14.07;6.18;;;;;;;23.48;39.61;100741.88;4990234;28;20023;-83
2023/07/02 08:02:09;;;;;;;13.70;6.60;;;;;;;23.45;40.38;100743.28;4987957;28;20482;-84
2023/07/02 08:04:34;;;;;;;13.57;5.90;;;;;;;22.76;38.97;100748.63;4989903;28;20028;-83
2023/07/02 08:07:00;;;;;;;14.10;5.60;;;;;;;21.55;41.77;100748.25;4987552;28;20046;-83
2023/07/02 08:09:25;;;;;;;14.05;6.03;;;;;;;20.87;43.47;100746.50;4988275;28;20031;-83
2023/07/02 08:11:50;;;;;;;12.35;6.25;;;;;;;20.55;43.94;100751.03;4986968;28;20031;-83
2023/07/02 08:14:16;;;;;;;12.82;5.70;;;;;;;21.13;43.71;100752.88;4990088;28;20030;-83
2023/07/02 08:16:42;;;;;;;12.35;5.38;;;;;;;21.00;43.13;100751.47;4987593;28;20347;-84
2023/07/02 08:19:07;;;;;;;11.82;5.63;;;;;;;21.32;42.75;100747.72;4988328;28;20346;-83
2023/07/02 08:21:32;;;;;;;10.70;5.88;;;;;;;21.43;42.60;100750.44;4990983;28;20466;-83
2023/07/02 08:23:58;;;;;;;11.93;5.43;;;;;;;21.80;41.16;100749.38;4989822;28;20018;-83
2023/07/02 08:26:23;;;;;;;14.70;6.22;;;;;;;22.32;41.64;100746.53;4989217;28;20049;-83
2023/07/02 08:28:49;;;;;;;11.65;5.90;;;;;;;22.99;39.32;100749.03;4989789;28;20034;-83
2023/07/02 08:31:14;;;;;;;10.60;5.28;;;;;;;24.36;37.45;100758.34;4993538;28;20026;-83
2023/07/02 08:33:40;;;;;;;12.82;5.68;;;;;;;24.19;38.04;100750.56;4988791;28;20022;-83
2023/07/02 08:36:05;;;;;;;11.63;5.47;;;;;;;24.94;36.09;100759.31;4990029;28;20037;-83
2023/07/02 08:38:31;;;;;;;13.30;5.68;;;;;;;24.51;35.94;100760.13;4989834;28;20027;-83
2023/07/02 08:40:56;;;;;;;9.43;5.00;;;;;;;26.32;33.69;100749.09;4990173;28;20052;-83
2023/07/02 08:43:24;;;;;;;11.13;5.50;;;;;;;26.14;34.49;100761.03;4987940;28;20037;-83
2023/07/02 08:45:49;;;;;;;8.02;4.82;;;;;;;25.92;33.83;100764.44;4990580;28;20072;-83
2023/07/02 08:48:15;;;;;;;14.50;5.60;;;;;;;25.66;35.65;100767.63;4971824;28;20026;-83
2023/07/02 08:50:42;;;;;;;11.48;5.10;;;;;;;24.50;35.83;100776.94;4972591;28;20132;-84
2023/07/02 08:53:07;;;;;;;11.73;5.25;;;;;;;24.60;35.04;100771.28;4972212;28;20035;-84
2023/07/02 08:55:33;;;;;;;10.57;5.30;;;;;;;22.80;38.46;100771.63;4989553;28;20032;-83
2023/07/02 08:57:59;;;;;;;10.20;5.70;;;;;;;22.59;39.40;100767.34;4988216;28;20517;-83
2023/07/02 09:00:24;;;;;;;13.77;5.45;;;;;;;22.71;39.07;100768.66;4990570;28;20053;-82
2023/07/02 09:02:50;;;;;;;11.55;5.78;;;;;;;21.67;40.82;100774.59;4974017;28;20455;-84
2023/07/02 09:05:15;;;;;;;11.48;5.50;;;;;;;22.85;39.84;100768.88;4988832;28;20036;-82
2023/07/02 09:07:48;;;;;;;11.70;5.22;;;;;;;23.95;37.72;100772.53;4989020;28;20038;-82
2023/07/02 09:10:32;;;;;;;10.52;5.85;;;;;;;23.71;39.09;100777.97;4985329;28;20410;-82
2023/07/02 09:13:04;;;;;;;10.93;5.63;;;;;;;24.15;38.04;100781.72;4985118;28;20035;-82
2023/07/02 09:15:39;;;;;;;13.02;5.63;;;;;;;24.02;38.21;100773.00;4984512;28;20434;-82
2023/07/02 09:18:35;;;;;;;8.82;4.65;;;;;;;24.43;33.35;100765.44;4989658;28;20042;-81
2023/07/02 09:21:01;;;;;;;9.15;5.20;;;;;;;23.51;34.19;100784.41;4984108;28;20041;-82
2023/07/02 09:23:35;;;;;;;11.80;5.20;;;;;;;24.27;32.98;100781.31;5055798;28;20030;-81
2023/07/02 09:26:01;;;;;;;11.00;5.20;;;;;;;23.43;34.37;100772.94;4983507;28;20022;-82
2023/07/02 09:28:26;;;;;;;11.82;4.88;;;;;;;23.85;34.86;100784.44;4986160;28;20293;-82
2023/07/02 09:31:01;;;;;;;10.07;5.45;;;;;;;24.63;32.79;100789.13;4982873;28;20030;-82
2023/07/02 09:33:29;;;;;;;10.75;5.40;;;;;;;24.35;33.52;100789.75;4989486;28;21642;-81
2023/07/02 09:35:55;;;;;;;8.93;4.65;;;;;;;24.75;32.86;100791.50;4991461;28;20031;-81
2023/07/02 09:38:20;;;;;;;11.05;5.05;;;;;;;24.52;34.22;100791.22;4989162;28;20049;-82
2023/07/02 09:40:47;;;;;;;10.90;5.00;;;;;;;24.00;34.89;100794.50;4988390;28;20030;-82
2023/07/02 09:43:13;;;;;;;12.27;5.18;;;;;;;24.00;33.65;100786.25;5000623;28;20031;-82
2023/07/02 09:45:49;;;;;;;8.20;4.65;;;;;;;23.67;34.65;100791.44;4981356;28;20501;-82
2023/07/02 09:48:16;;;;;;;10.35;5.43;;;;;;;21.78;37.31;100778.97;4986170;28;20040;-82
2023/07/02 09:50:45;;;;;;;11.35;5.68;;;;;;;22.15;37.19;100794.31;4989869;28;20417;-82
2023/07/02 09:53:11;;;;;;;10.15;4.70;;;;;;;23.02;37.12;100798.72;4984752;28;20087;-81
2023/07/02 09:55:37;;;;;;;9.15;5.22;;;;;;;23.90;36.26;100791.81;4985805;28;20030;-82
2023/07/02 09:58:04;;;;;;;10.10;4.93;;;;;;;24.38;34.53;100783.63;4986720;28;20033;-81
2023/07/02 10:00:29;;;;;;;10.38;5.05;;;;;;;25.71;32.82;100789.63;4954850;28;20022;-81
2023/07/02 10:02:55;;;;;;;11.07;5.03;;;;;;;26.06;30.84;100786.50;4988298;28;20021;-82
2023/07/02 10:05:28;;;;;;;9.70;4.72;;;;;;;25.56;30.82;100783.25;4970910;28;20496;-82
2023/07/02 10:07:53;;;;;;;7.60;4.63;;;;;;;24.10;33.36;100790.81;4988569;28;20026;-82
2023/07/02 10:10:29;;;;;;;9.48;4.93;;;;;;;24.09;33.90;100796.63;4983344;28;20033;-81
2023/07/02 10:12:54;;;;;;;10.10;4.93;;;;;;;23.84;33.61;100782.78;4981207;28;20084;-82
2023/07/02 10:15:29;;;;;;;7.63;4.63;;;;;;;25.20;31.22;100802.19;4986149;28;20046;-82
2023/07/02 10:17:58;;;;;;;8.18;4.32;;;;;;;25.49;31.14;100807.59;4987452;28;20319;-81
2023/07/02 10:20:36;;;;;;;8.95;4.75;;;;;;;24.82;31.25;100791.97;4985990;28;20043;-81
2023/07/02 10:23:03;;;;;;;8.70;4.50;;;;;;;24.42;32.56;100799.56;4976666;28;20038;-82
2023/07/02 10:25:29;;;;;;;12.57;5.43;;;;;;;24.11;32.74;100794.41;4986990;28;20057;-82
2023/07/02 10:27:55;;;;;;;10.70;4.75;;;;;;;23.90;32.69;100813.78;4990606;28;20037;-82
2023/07/02 10:30:39;;;;;;;8.70;4.55;;;;;;;24.44;31.13;100811.09;4986450;28;20375;-83
2023/07/02 10:33:23;;;;;;;6.18;4.00;;;;;;;24.21;31.61;100802.53;4984918;28;20530;-83
2023/07/02 10:35:49;;;;;;;8.82;4.82;;;;;;;24.47;31.74;100799.53;4990057;28;20053;-83
2023/07/02 10:38:15;;;;;;;10.93;4.85;;;;;;;25.07;30.76;100823.03;4991421;28;20323;-83
2023/07/02 10:40:42;;;;;;;7.95;4.38;;;;;;;25.34;30.80;100818.81;4991921;28;20533;-83
2023/07/02 10:43:07;;;;;;;7.70;4.55;;;;;;;25.52;29.35;100807.00;4986758;28;20026;-83
2023/07/02 10:45:33;;;;;;;7.10;4.35;;;;;;;25.32;31.55;100812.78;4992514;28;20044;-82
2023/07/02 10:47:59;;;;;;;6.97;4.65;;;;;;;26.59;29.12;100815.63;4990037;28;20517;-82
2023/07/02 10:50:25;;;;;;;7.30;4.38;;;;;;;26.84;28.24;100806.03;4991387;28;20031;-81
2023/07/02 10:52:51;;;;;;;8.20;4.38;;;;;;;26.60;28.43;100804.28;4988352;28;20018;-82
2023/07/02 10:55:20;;;;;;;6.38;4.40;;;;;;;26.86;27.72;100797.44;4988623;28;20026;-80
2023/07/02 10:57:47;;;;;;;9.82;4.45;;;;;;;25.41;29.79;100802.75;4987323;28;20030;-81
2023/07/02 11:00:13;;;;;;;11.40;5.13;;;;;;;24.38;32.31;100811.16;4989870;28;20363;-79
2023/07/02 11:02:38;;;;;;;8.90;4.30;;;;;;;23.15;31.67;100826.66;4988727;28;20056;-80
2023/07/02 11:05:12;;;;;;;9.85;4.35;;;;;;;22.21;32.24;100811.56;4989637;28;20026;-82
2023/07/02 11:07:43;;;;;;;7.18;4.20;;;;;;;22.03;33.11;100802.00;4989089;28;20045;-81
2023/07/02 11:10:09;;;;;;;9.18;4.43;;;;;;;21.48;33.79;100817.00;4986156;28;20027;-80
2023/07/02 11:12:35;;;;;;;10.93;4.75;;;;;;;22.62;33.77;100807.91;4982652;28;20030;-80
2023/07/02 11:15:10;;;;;;;6.63;3.92;;;;;;;23.85;31.89;100805.59;4985210;28;20509;-80
2023/07/02 11:17:35;;;;;;;8.95;4.25;;;;;;;24.14;32.18;100832.31;4985694;28;20115;-79